Time;durP1;ratioP1;P1;durP2;ratioP2;P2;SDS_P1;SDS_P2;PMS_P1;PMS_P2;Temp;Humidity;BMP_temperature;BMP_pressure;BME280_temperature;BME280_humidity;BME280_pressure;Samples;Min_cycle;Max_cycle;Signal;HPM_P1;HPM_P2
2024/01/02 00:00:41;;;;;;;127.38;55.97;;;17.50;68.60;;;;;;4879301;28;89527;-42
2024/01/02 00:03:07;;;;;;;125.43;55.92;;;17.50;68.80;;;;;;4882714;28;89158;-42
2024/01/02 00:05:33;;;;;;;126.35;56.30;;;17.50;68.80;;;;;;4879754;28;89652;-41
2024/01/02 00:07:58;;;;;;;125.80;56.17;;;17.50;69.00;;;;;;4881574;28;88114;-42
2024/01/02 00:10:24;;;;;;;124.63;55.65;;;17.40;68.80;;;;;;4879465;28;89577;-43
2024/01/02 00:12:50;;;;;;;126.43;55.88;;;17.40;68.90;;;;;;4877734;28;89389;-41
2024/01/02 00:15:15;;;;;;;126.05;55.92;;;17.40;68.80;;;;;;4878903;28;90319;-41
2024/01/02 00:17:41;;;;;;;125.53;56.28;;;17.40;68.90;;;;;;4877947;28;89707;-41
2024/01/02 00:20:07;;;;;;;125.38;56.05;;;17.40;68.80;;;;;;4878178;28;89764;-41
2024/01/02 00:22:33;;;;;;;126.65;56.13;;;17.40;68.90;;;;;;4876505;28;89550;-41
2024/01/02 00:24:59;;;;;;;125.57;56.28;;;17.30;68.80;;;;;;4875097;28;90626;-41
2024/01/02 00:27:24;;;;;;;124.43;55.67;;;17.30;68.90;;;;;;4873515;28;89415;-44
2024/01/02 00:29:50;;;;;;;124.82;55.90;;;17.40;69.00;;;;;;4875490;28;90506;-42
2024/01/02 00:32:16;;;;;;;124.47;55.65;;;17.30;68.90;;;;;;4879045;28;90203;-43
2024/01/02 00:34:41;;;;;;;125.85;56.25;;;17.30;68.90;;;;;;4882919;28;89564;-41
2024/01/02 00:37:07;;;;;;;125.05;56.17;;;17.30;69.00;;;;;;4878023;28;90167;-42
2024/01/02 00:39:32;;;;;;;125.50;55.85;;;17.30;69.10;;;;;;4874999;28;91384;-41
2024/01/02 00:41:58;;;;;;;124.80;56.00;;;17.20;69.00;;;;;;4876282;28;90035;-42
2024/01/02 00:44:24;;;;;;;125.07;56.15;;;17.30;69.00;;;;;;4878998;28;90615;-41
2024/01/02 00:46:49;;;;;;;125.82;55.85;;;17.20;69.10;;;;;;4877437;28;89704;-42
2024/01/02 00:49:15;;;;;;;125.28;56.03;;;17.20;69.00;;;;;;4877359;28;90214;-44
2024/01/02 00:51:41;;;;;;;125.63;55.72;;;17.30;69.00;;;;;;4878095;28;89261;-41
2024/01/02 00:54:06;;;;;;;124.35;55.75;;;17.20;69.10;;;;;;4879104;28;89495;-44
2024/01/02 00:56:32;;;;;;;124.03;55.63;;;17.20;69.10;;;;;;4883146;28;89284;-43
2024/01/02 00:58:57;;;;;;;125.55;56.00;;;17.20;69.00;;;;;;4878866;28;89415;-44
2024/01/02 01:01:23;;;;;;;124.68;56.08;;;17.20;69.00;;;;;;4878356;28;89726;-42
2024/01/02 01:03:49;;;;;;;123.93;55.58;;;17.20;69.10;;;;;;4881804;28;91335;-41
2024/01/02 01:06:15;;;;;;;123.63;55.40;;;17.10;68.90;;;;;;4877302;28;89894;-43
2024/01/02 01:08:40;;;;;;;125.25;55.90;;;17.10;69.00;;;;;;4878440;28;89233;-42
2024/01/02 01:11:06;;;;;;;123.63;55.38;;;17.10;69.00;;;;;;4876199;28;90309;-41
2024/01/02 01:13:32;;;;;;;123.97;55.47;;;17.10;69.10;;;;;;4876163;28;89574;-43
2024/01/02 01:15:57;;;;;;;123.78;55.35;;;17.10;69.00;;;;;;4882766;28;89533;-42
2024/01/02 01:18:23;;;;;;;124.18;55.35;;;17.10;69.00;;;;;;4880738;28;89784;-41
2024/01/02 01:20:48;;;;;;;124.35;55.65;;;17.10;69.00;;;;;;4880533;28;88660;-45
2024/01/02 01:23:14;;;;;;;123.88;55.53;;;17.10;69.00;;;;;;4878981;28;89229;-41
2024/01/02 01:25:40;;;;;;;123.47;54.85;;;17.00;68.80;;;;;;4883465;28;89744;-42
2024/01/02 01:28:05;;;;;;;123.97;55.65;;;17.10;69.00;;;;;;4885840;28;91112;-42
2024/01/02 01:30:31;;;;;;;123.20;55.22;;;17.00;69.00;;;;;;4884120;28;89889;-42
2024/01/02 01:32:57;;;;;;;123.68;55.53;;;17.10;68.90;;;;;;4886082;28;89924;-40
2024/01/02 01:35:22;;;;;;;123.55;55.47;;;17.00;69.00;;;;;;4883709;28;89281;-41
2024/01/02 01:37:48;;;;;;;123.68;55.70;;;17.00;69.00;;;;;;4881833;28;89779;-44
2024/01/02 01:40:14;;;;;;;124.40;55.80;;;17.00;68.90;;;;;;4888189;28;89520;-40
2024/01/02 01:42:39;;;;;;;124.32;55.38;;;17.10;69.00;;;;;;4875959;28;89542;-42
2024/01/02 01:45:05;;;;;;;123.78;55.53;;;17.00;68.80;;;;;;4882893;28;89546;-41
2024/01/02 01:47:31;;;;;;;123.18;55.10;;;17.00;68.80;;;;;;4885095;28;90004;-43
2024/01/02 01:49:57;;;;;;;123.07;55.05;;;17.00;68.80;;;;;;4881874;28;89833;-42
2024/01/02 01:52:24;;;;;;;123.68;55.35;;;17.00;69.00;;;;;;4877633;28;90768;-42
2024/01/02 01:54:50;;;;;;;123.03;55.00;;;17.00;69.00;;;;;;4884839;28;90130;-40
2024/01/02 01:57:17;;;;;;;122.75;55.00;;;17.00;69.10;;;;;;4882077;28;89774;-42
2024/01/02 01:59:44;;;;;;;123.60;55.42;;;16.90;69.00;;;;;;4883600;28;89787;-43
2024/01/02 02:02:11;;;;;;;123.53;55.45;;;17.00;69.00;;;;;;4879761;28;94213;-39
2024/01/02 02:04:43;;;;;;;123.97;55.30;;;17.00;69.10;;;;;;4877916;28;89833;-39
2024/01/02 02:07:10;;;;;;;123.40;55.33;;;16.90;68.90;;;;;;4877537;28;90987;-40
2024/01/02 02:09:35;;;;;;;124.18;55.45;;;16.90;68.90;;;;;;4879911;28;90337;-40
2024/01/02 02:12:02;;;;;;;124.10;56.03;;;16.90;69.00;;;;;;4876740;28;89832;-40
2024/01/02 02:14:28;;;;;;;124.07;55.67;;;16.90;69.00;;;;;;4880356;28;89560;-40
2024/01/02 02:16:53;;;;;;;123.18;55.33;;;16.90;69.00;;;;;;4879693;28;90403;-39
2024/01/02 02:19:19;;;;;;;123.30;55.17;;;16.90;69.00;;;;;;4876561;28;89558;-42
2024/01/02 02:21:47;;;;;;;123.50;55.40;;;16.90;69.00;;;;;;4876819;28;90064;-41
2024/01/02 02:24:13;;;;;;;123.40;55.47;;;16.90;69.00;;;;;;4877825;28;90057;-42
2024/01/02 02:26:38;;;;;;;124.15;55.67;;;16.90;69.10;;;;;;4878202;28;90864;-41
2024/01/02 02:29:04;;;;;;;122.97;54.95;;;16.80;69.10;;;;;;4885293;28;90146;-41
2024/01/02 02:31:30;;;;;;;122.75;55.33;;;16.80;69.10;;;;;;4877702;28;90021;-41
2024/01/02 02:33:56;;;;;;;123.32;55.25;;;16.80;69.10;;;;;;4880870;28;88879;-39
2024/01/02 02:36:21;;;;;;;122.15;54.78;;;16.80;69.30;;;;;;4877073;28;90200;-39
2024/01/02 02:38:47;;;;;;;123.45;55.22;;;16.80;69.20;;;;;;4883099;28;90522;-39
2024/01/02 02:41:13;;;;;;;123.82;55.50;;;16.80;69.10;;;;;;4876687;28;90499;-45
2024/01/02 02:43:38;;;;;;;122.95;55.28;;;16.80;69.10;;;;;;4875844;28;90129;-41
2024/01/02 02:46:04;;;;;;;123.38;55.45;;;16.80;69.20;;;;;;4877185;28;90089;-41
2024/01/02 02:48:30;;;;;;;124.78;54.95;;;16.80;69.10;;;;;;4885281;28;90007;-43
2024/01/02 02:50:55;;;;;;;123.45;55.15;;;16.80;69.20;;;;;;4882040;28;90434;-42
2024/01/02 02:53:21;;;;;;;122.65;55.00;;;16.80;69.30;;;;;;4882469;28;89537;-48
2024/01/02 02:55:47;;;;;;;122.20;54.90;;;16.80;69.10;;;;;;4880542;28;90283;-45
2024/01/02 02:58:12;;;;;;;123.07;55.40;;;16.80;69.20;;;;;;4882015;28;88811;-42
2024/01/02 03:00:38;;;;;;;123.13;55.30;;;16.80;70.10;;;;;;4881584;28;89277;-45
2024/01/02 03:03:04;;;;;;;123.25;55.08;;;16.80;69.30;;;;;;4883656;28;90320;-45
2024/01/02 03:05:30;;;;;;;123.18;55.13;;;16.70;69.30;;;;;;4882528;28;90139;-41
2024/01/02 03:07:57;;;;;;;122.47;54.85;;;16.70;69.40;;;;;;4879580;28;91197;-42
2024/01/02 03:10:24;;;;;;;122.78;55.17;;;16.70;69.40;;;;;;4878497;28;95067;-39
2024/01/02 03:12:50;;;;;;;122.75;54.97;;;16.70;69.40;;;;;;4877259;28;89965;-39
2024/01/02 03:15:17;;;;;;;123.18;55.25;;;16.70;69.40;;;;;;4878902;28;89763;-40
2024/01/02 03:17:42;;;;;;;123.13;55.08;;;16.70;69.40;;;;;;4879385;28;89995;-40
2024/01/02 03:20:08;;;;;;;123.38;55.38;;;16.70;69.40;;;;;;4853209;28;91237;-40
2024/01/02 03:25:56;;;;;;;122.50;54.88;;;16.70;69.60;;;;;;4841609;28;90546;-49
2024/01/02 03:28:21;;;;;;;122.53;55.00;;;16.70;69.50;;;;;;4878718;28;90507;-39
2024/01/02 03:30:47;;;;;;;122.95;55.15;;;16.70;69.60;;;;;;4878445;28;91211;-40
2024/01/02 03:33:13;;;;;;;123.05;54.88;;;16.70;69.60;;;;;;4878072;28;89942;-41
2024/01/02 03:35:38;;;;;;;123.50;55.33;;;16.70;69.60;;;;;;4877770;28;89890;-41
2024/01/02 03:38:04;;;;;;;122.40;55.00;;;16.70;69.60;;;;;;4877697;28;90965;-40
2024/01/02 03:40:29;;;;;;;122.50;54.92;;;16.70;69.40;;;;;;4880789;28;92334;-41
2024/01/02 03:42:55;;;;;;;122.07;54.70;;;16.70;69.40;;;;;;4897656;28;89614;-39
2024/01/02 03:45:20;;;;;;;125.68;55.17;;;16.70;69.50;;;;;;4880207;28;90167;-40
2024/01/02 03:47:46;;;;;;;124.18;55.38;;;16.70;69.90;;;;;;4879843;28;89442;-42
2024/01/02 03:50:12;;;;;;;122.55;54.97;;;16.70;69.80;;;;;;4874315;28;92325;-41
2024/01/02 03:52:37;;;;;;;123.00;54.97;;;16.70;69.70;;;;;;4879073;28;90019;-42
2024/01/02 03:55:03;;;;;;;123.97;55.08;;;16.70;69.70;;;;;;4880264;28;90788;-42
2024/01/02 03:57:29;;;;;;;122.82;55.08;;;16.70;69.90;;;;;;4882916;28;89914;-43
2024/01/02 03:59:55;;;;;;;125.00;55.00;;;16.70;69.80;;;;;;4876870;28;89454;-43
2024/01/02 04:02:20;;;;;;;123.53;55.05;;;16.70;69.90;;;;;;4883474;28;89915;-43
2024/01/02 04:04:46;;;;;;;123.50;55.08;;;16.70;69.80;;;;;;4875564;28;91195;-41
2024/01/02 04:07:11;;;;;;;122.43;54.90;;;16.70;69.90;;;;;;4884726;28;89271;-42
2024/01/02 04:09:37;;;;;;;122.68;54.85;;;16.70;69.90;;;;;;4895309;28;89281;-40
2024/01/02 04:12:03;;;;;;;121.97;54.67;;;16.70;70.00;;;;;;4882399;28;88421;-42
2024/01/02 04:14:29;;;;;;;125.75;54.85;;;16.70;70.20;;;;;;4879618;28;89989;-41
2024/01/02 04:16:54;;;;;;;128.38;55.28;;;16.70;70.10;;;;;;4885611;28;89922;-41
2024/01/02 04:19:21;;;;;;;123.65;55.45;;;16.70;70.20;;;;;;4878106;28;90102;-40
2024/01/02 04:21:47;;;;;;;122.72;54.63;;;16.70;70.20;;;;;;4877478;28;89902;-41
2024/01/02 04:24:14;;;;;;;126.50;55.25;;;16.70;70.20;;;;;;4881022;28;89061;-41
2024/01/02 04:26:40;;;;;;;122.97;55.17;;;16.70;70.30;;;;;;4881712;28;90412;-41
2024/01/02 04:29:06;;;;;;;124.30;54.95;;;16.70;70.30;;;;;;4877220;28;90461;-41
2024/01/02 04:31:31;;;;;;;126.03;55.33;;;16.70;70.30;;;;;;4879410;28;89235;-41
2024/01/02 04:33:57;;;;;;;122.63;54.92;;;16.70;70.40;;;;;;4880790;28;90007;-43
2024/01/02 04:36:25;;;;;;;130.07;55.28;;;16.70;70.30;;;;;;4876694;28;90103;-42
2024/01/02 04:38:52;;;;;;;122.97;54.85;;;16.70;70.40;;;;;;4877945;28;89838;-42
2024/01/02 04:41:19;;;;;;;122.82;54.80;;;16.70;70.50;;;;;;4887139;28;89249;-42
2024/01/02 04:43:45;;;;;;;122.68;55.20;;;16.60;70.40;;;;;;4881003;28;90009;-41
2024/01/02 04:46:11;;;;;;;123.88;55.08;;;16.60;70.40;;;;;;4883856;28;89733;-42
2024/01/02 04:48:37;;;;;;;125.72;55.10;;;16.60;70.50;;;;;;4882330;28;89109;-42
2024/01/02 04:51:03;;;;;;;123.88;54.85;;;16.60;70.60;;;;;;4879702;28;89320;-41
2024/01/02 04:53:28;;;;;;;123.13;54.85;;;16.60;70.60;;;;;;4885004;28;90413;-41
2024/01/02 04:55:54;;;;;;;123.45;55.13;;;16.60;70.60;;;;;;4886508;28;90514;-42
2024/01/02 04:58:20;;;;;;;121.78;54.70;;;16.60;70.60;;;;;;4886892;28;89386;-41
2024/01/02 05:00:46;;;;;;;124.72;55.05;;;16.60;70.60;;;;;;4884258;28;89087;-40
2024/01/02 05:03:12;;;;;;;123.68;55.17;;;16.60;70.60;;;;;;4888462;28;89210;-40
2024/01/02 05:05:38;;;;;;;126.53;55.05;;;16.60;70.60;;;;;;4884759;28;94492;-39
2024/01/02 05:08:05;;;;;;;124.30;54.97;;;16.60;70.60;;;;;;4883028;28;90736;-40
2024/01/02 05:10:30;;;;;;;124.20;55.05;;;16.60;70.60;;;;;;4881570;28;90842;-39
2024/01/02 05:12:56;;;;;;;124.90;55.33;;;16.60;70.60;;;;;;4880646;28;89493;-42
2024/01/02 05:15:22;;;;;;;124.00;55.15;;;16.60;70.50;;;;;;4885587;28;90411;-42
2024/01/02 05:17:48;;;;;;;122.95;55.15;;;16.60;70.60;;;;;;4884523;28;90538;-44
2024/01/02 05:20:13;;;;;;;122.13;54.25;;;16.60;70.60;;;;;;4881166;28;89451;-47
2024/01/02 05:22:39;;;;;;;123.22;55.25;;;16.70;70.60;;;;;;4884974;28;90900;-45
2024/01/02 05:25:06;;;;;;;124.90;54.80;;;16.60;70.60;;;;;;4884847;28;89058;-40
2024/01/02 05:27:32;;;;;;;123.15;54.95;;;16.60;70.70;;;;;;4887869;28;89766;-44
2024/01/02 05:29:58;;;;;;;122.53;54.45;;;16.60;70.70;;;;;;4883194;28;91556;-41
2024/01/02 05:32:23;;;;;;;125.78;55.35;;;16.60;70.70;;;;;;4886053;28;91946;-41
2024/01/02 05:34:49;;;;;;;123.25;54.78;;;16.60;70.80;;;;;;4879716;28;90793;-40
2024/01/02 05:37:16;;;;;;;123.55;55.03;;;16.60;70.70;;;;;;4889119;28;89396;-39
2024/01/02 05:39:41;;;;;;;122.63;54.67;;;16.60;70.80;;;;;;4883202;28;89279;-40
2024/01/02 05:42:07;;;;;;;122.45;54.95;;;16.60;70.90;;;;;;4885290;28;90046;-40
2024/01/02 05:44:33;;;;;;;121.38;54.53;;;16.60;70.80;;;;;;4885881;28;89565;-41
2024/01/02 05:46:58;;;;;;;124.70;55.20;;;16.60;70.80;;;;;;4880987;28;90448;-41
2024/01/02 05:49:24;;;;;;;124.25;55.03;;;16.60;70.80;;;;;;4878343;28;88432;-41
2024/01/02 05:51:50;;;;;;;122.65;54.90;;;16.60;70.90;;;;;;4880978;28;89660;-40
2024/01/02 05:54:15;;;;;;;122.75;55.17;;;16.60;70.80;;;;;;4881823;28;89914;-41
2024/01/02 05:56:41;;;;;;;123.40;54.67;;;16.60;70.90;;;;;;4881844;28;90876;-42
2024/01/02 05:59:06;;;;;;;126.22;54.83;;;16.60;70.90;;;;;;4882363;28;89640;-40
2024/01/02 06:01:32;;;;;;;121.88;54.78;;;16.60;70.90;;;;;;4879045;28;91016;-40
2024/01/02 06:03:58;;;;;;;122.03;54.95;;;16.60;70.90;;;;;;4878904;28;89901;-41
2024/01/02 06:06:23;;;;;;;123.00;55.25;;;16.60;70.90;;;;;;4883572;28;89901;-40
2024/01/02 06:08:49;;;;;;;122.38;55.13;;;16.50;70.90;;;;;;4884043;28;89719;-40
2024/01/02 06:11:14;;;;;;;122.43;54.97;;;16.60;70.90;;;;;;4882616;28;89406;-39
2024/01/02 06:13:40;;;;;;;125.28;54.78;;;16.60;70.90;;;;;;4885283;28;88868;-40
2024/01/02 06:16:10;;;;;;;122.25;54.88;;;16.60;70.90;;;;;;4881694;28;89746;-40
2024/01/02 06:18:36;;;;;;;122.28;54.83;;;16.60;70.90;;;;;;4884202;28;89545;-40
2024/01/02 06:21:04;;;;;;;124.65;54.70;;;16.50;70.80;;;;;;4883098;28;90513;-40
2024/01/02 06:23:31;;;;;;;123.13;54.92;;;16.60;70.90;;;;;;4882677;28;89697;-40
2024/01/02 06:25:57;;;;;;;122.47;55.10;;;16.60;70.90;;;;;;4882758;28;90427;-40
2024/01/02 06:28:23;;;;;;;123.38;54.63;;;16.60;70.90;;;;;;4898807;28;89523;-43
2024/01/02 06:30:49;;;;;;;122.45;54.75;;;16.60;70.90;;;;;;4881574;28;90703;-39
2024/01/02 06:33:14;;;;;;;124.13;55.05;;;16.50;70.80;;;;;;4884456;28;89988;-40
2024/01/02 06:35:40;;;;;;;122.50;54.88;;;16.60;70.90;;;;;;4885366;28;89984;-39
2024/01/02 06:38:06;;;;;;;124.10;55.20;;;16.60;70.90;;;;;;4879766;28;89540;-39
2024/01/02 06:40:32;;;;;;;122.55;54.88;;;16.50;70.90;;;;;;4876773;28;90007;-39
2024/01/02 06:42:58;;;;;;;122.07;54.97;;;16.50;70.90;;;;;;4879468;28;89526;-40
2024/01/02 06:45:23;;;;;;;122.63;54.95;;;16.50;70.90;;;;;;4878841;28;91219;-40
2024/01/02 06:47:49;;;;;;;122.43;54.70;;;16.60;70.90;;;;;;4884590;28;89944;-40
2024/01/02 06:50:15;;;;;;;123.00;55.10;;;16.60;71.00;;;;;;4876810;28;90166;-39
2024/01/02 06:52:40;;;;;;;130.57;55.17;;;16.60;71.10;;;;;;4886415;28;89688;-39
2024/01/02 06:55:06;;;;;;;124.45;55.03;;;16.60;71.00;;;;;;4881985;28;89971;-40
2024/01/02 06:57:32;;;;;;;122.05;54.83;;;16.60;71.00;;;;;;4883034;28;90223;-40
2024/01/02 06:59:58;;;;;;;122.35;54.83;;;16.60;71.00;;;;;;4878537;28;89700;-39
2024/01/02 07:02:24;;;;;;;122.55;55.10;;;16.60;71.00;;;;;;4881093;28;89885;-39
2024/01/02 07:04:49;;;;;;;122.43;54.92;;;16.60;71.20;;;;;;4883643;28;89461;-40
2024/01/02 07:07:15;;;;;;;123.80;54.97;;;16.60;71.20;;;;;;4878853;28;90052;-41
2024/01/02 07:09:40;;;;;;;123.55;55.05;;;16.60;71.20;;;;;;4871573;28;90687;-41
2024/01/02 07:12:07;;;;;;;122.25;54.97;;;16.60;71.20;;;;;;4876851;28;90894;-39
2024/01/02 07:14:33;;;;;;;124.95;55.05;;;16.50;71.10;;;;;;4878168;28;89918;-42
2024/01/02 07:16:59;;;;;;;124.55;55.38;;;16.60;72.00;;;;;;4879648;28;89420;-40
2024/01/02 07:19:25;;;;;;;122.30;55.03;;;16.60;71.20;;;;;;4876267;28;90093;-39
2024/01/02 07:21:51;;;;;;;123.97;55.15;;;16.60;71.20;;;;;;4876811;28;89280;-42
2024/01/02 07:24:16;;;;;;;122.57;55.05;;;16.60;71.20;;;;;;4877386;28;89571;-41
2024/01/02 07:26:42;;;;;;;122.15;55.10;;;16.60;71.20;;;;;;4882071;28;88835;-42
2024/01/02 07:29:08;;;;;;;122.07;54.67;;;16.60;71.20;;;;;;4879068;28;89261;-42
2024/01/02 07:31:35;;;;;;;122.28;54.72;;;16.60;71.20;;;;;;4881566;28;89579;-39
2024/01/02 07:34:01;;;;;;;121.97;54.75;;;16.60;71.20;;;;;;4879414;28;91128;-44
2024/01/02 07:36:27;;;;;;;122.45;55.08;;;16.60;71.20;;;;;;4880368;28;89500;-44
2024/01/02 07:38:53;;;;;;;122.38;55.22;;;16.60;71.20;;;;;;4878104;28;90094;-42
2024/01/02 07:41:19;;;;;;;122.80;54.90;;;16.60;71.30;;;;;;4878353;28;89559;-41
2024/01/02 07:43:45;;;;;;;121.65;54.60;;;16.60;71.30;;;;;;4881260;28;89684;-40
2024/01/02 07:46:10;;;;;;;121.65;54.53;;;16.60;71.30;;;;;;4876407;28;89498;-42
2024/01/02 07:48:36;;;;;;;124.47;54.63;;;16.60;71.30;;;;;;4881209;28;89790;-40
2024/01/02 07:51:02;;;;;;;121.85;54.55;;;16.60;71.30;;;;;;4876088;28;91270;-40
2024/01/02 07:53:28;;;;;;;122.78;55.13;;;16.60;71.30;;;;;;4878936;28;90157;-42
2024/01/02 07:55:54;;;;;;;122.28;55.05;;;16.50;71.20;;;;;;4878825;28;90053;-40
2024/01/02 07:58:19;;;;;;;121.78;54.50;;;16.50;71.20;;;;;;4877735;28;90693;-40
2024/01/02 08:00:45;;;;;;;122.45;54.92;;;16.60;71.30;;;;;;4877346;28;89958;-40
2024/01/02 08:03:11;;;;;;;122.07;54.95;;;16.60;71.30;;;;;;4880648;28;89955;-40
2024/01/02 08:05:36;;;;;;;121.70;54.72;;;16.50;71.30;;;;;;4878684;28;89869;-41
2024/01/02 08:08:03;;;;;;;122.22;55.03;;;16.50;71.30;;;;;;4883701;28;89782;-40
2024/01/02 08:10:28;;;;;;;122.57;54.88;;;16.60;71.50;;;;;;4883284;28;90815;-45
2024/01/02 08:12:54;;;;;;;122.45;55.03;;;16.50;71.40;;;;;;4879814;28;89430;-39
2024/01/02 08:15:19;;;;;;;123.43;54.92;;;16.50;71.50;;;;;;4881879;28;90068;-40
2024/01/02 08:17:46;;;;;;;122.05;55.00;;;16.50;71.40;;;;;;4881826;28;89865;-40
2024/01/02 08:20:12;;;;;;;123.65;54.83;;;16.50;71.40;;;;;;4880784;28;90485;-41
2024/01/02 08:22:37;;;;;;;122.30;54.90;;;16.50;71.50;;;;;;4881576;28;92193;-40
2024/01/02 08:25:04;;;;;;;123.95;55.22;;;16.50;71.40;;;;;;4886153;28;89453;-41
2024/01/02 08:27:29;;;;;;;121.25;54.63;;;16.50;71.50;;;;;;4882970;28;90334;-46
2024/01/02 08:29:55;;;;;;;122.20;55.00;;;16.50;71.50;;;;;;4883058;28;89781;-39
2024/01/02 08:32:22;;;;;;;123.15;54.78;;;16.50;71.50;;;;;;4883582;28;91203;-43
2024/01/02 08:34:49;;;;;;;123.40;55.33;;;16.50;71.60;;;;;;4883627;28;90405;-42
2024/01/02 08:37:14;;;;;;;122.32;54.75;;;16.50;71.60;;;;;;4882464;28;89088;-45
2024/01/02 08:39:40;;;;;;;123.55;54.85;;;16.50;71.60;;;;;;4885917;28;88806;-41
2024/01/02 08:42:06;;;;;;;122.32;54.95;;;16.50;71.60;;;;;;4880882;28;90357;-43
2024/01/02 08:44:33;;;;;;;123.15;55.05;;;16.50;71.60;;;;;;4882698;28;89832;-42
2024/01/02 08:46:58;;;;;;;121.75;54.75;;;16.50;71.60;;;;;;4880024;28;91016;-41
2024/01/02 08:49:24;;;;;;;122.10;55.00;;;16.50;71.60;;;;;;4882128;28;90746;-43
2024/01/02 08:51:50;;;;;;;122.53;55.38;;;16.50;71.60;;;;;;4885272;28;90106;-46
2024/01/02 08:54:15;;;;;;;122.53;54.97;;;16.50;71.60;;;;;;4881799;28;89146;-42
2024/01/02 08:56:41;;;;;;;122.65;54.67;;;16.50;72.00;;;;;;4876730;28;89637;-43
2024/01/02 08:59:07;;;;;;;124.15;55.22;;;16.50;72.20;;;;;;4882305;28;89160;-42
2024/01/02 09:01:32;;;;;;;123.00;55.08;;;16.50;72.50;;;;;;4879100;28;89954;-42
2024/01/02 09:03:58;;;;;;;123.32;55.15;;;16.50;72.70;;;;;;4884489;28;88274;-42
2024/01/02 09:06:24;;;;;;;121.97;55.08;;;16.50;72.80;;;;;;4878308;28;90610;-41
2024/01/02 09:08:50;;;;;;;122.53;55.28;;;16.50;72.80;;;;;;4875578;28;89642;-44
2024/01/02 09:11:16;;;;;;;122.45;55.15;;;16.50;72.70;;;;;;4876597;28;90941;-42
2024/01/02 09:13:42;;;;;;;123.90;55.10;;;16.50;72.80;;;;;;4875776;28;89318;-43
2024/01/02 09:16:08;;;;;;;122.82;54.80;;;16.50;72.90;;;;;;4881780;28;89994;-44
2024/01/02 09:18:33;;;;;;;123.18;55.15;;;16.50;72.90;;;;;;4875969;28;89345;-41
2024/01/02 09:20:59;;;;;;;122.60;54.90;;;16.50;72.90;;;;;;4873514;28;89041;-42
2024/01/02 09:23:25;;;;;;;122.32;55.05;;;16.50;72.80;;;;;;4876133;28;89790;-43
2024/01/02 09:25:51;;;;;;;122.55;55.22;;;16.60;73.00;;;;;;4881153;28;90167;-44
2024/01/02 09:28:20;;;;;;;122.75;55.45;;;16.60;73.00;;;;;;4874697;28;88945;-43
2024/01/02 09:30:46;;;;;;;123.82;55.08;;;16.60;73.40;;;;;;4871851;28;89439;-43
2024/01/02 09:33:12;;;;;;;123.72;55.17;;;16.60;73.60;;;;;;4870312;28;89946;-41
2024/01/02 09:35:38;;;;;;;123.05;54.67;;;16.50;73.80;;;;;;4867645;28;90854;-42
2024/01/02 09:38:06;;;;;;;122.15;54.97;;;16.60;74.00;;;;;;4876059;28;89695;-42
2024/01/02 09:40:59;;;;;;;122.28;54.83;;;16.50;74.10;;;;;;4875045;28;89756;-42
2024/01/02 09:43:40;;;;;;;123.18;55.53;;;16.50;74.40;;;;;;4874717;28;89584;-42
2024/01/02 09:46:24;;;;;;;123.47;55.28;;;16.60;74.90;;;;;;4872686;28;90458;-42
2024/01/02 09:48:50;;;;;;;123.32;55.17;;;16.60;75.30;;;;;;4880210;28;89922;-40
2024/01/02 09:51:42;;;;;;;122.13;54.88;;;16.60;76.40;;;;;;4881035;28;90498;-41
2024/01/02 09:54:30;;;;;;;122.18;55.13;;;16.50;76.50;;;;;;4872935;28;89562;-41
2024/01/02 09:57:07;;;;;;;122.43;54.80;;;16.50;76.70;;;;;;4868081;28;89911;-40
2024/01/02 10:00:03;;;;;;;122.57;55.22;;;16.50;76.60;;;;;;4878858;28;90757;-43
2024/01/02 10:02:49;;;;;;;122.75;55.20;;;16.50;76.40;;;;;;4874365;28;90315;-42
2024/01/02 10:05:38;;;;;;;123.43;55.10;;;16.50;76.10;;;;;;4879126;28;89956;-43
2024/01/02 10:08:16;;;;;;;121.90;54.47;;;16.50;76.10;;;;;;4899265;23;90392;-70
2024/01/02 10:11:00;;;;;;;123.15;54.45;;;16.50;75.90;;;;;;4897219;28;90603;-70
2024/01/02 10:13:51;;;;;;;123.40;54.53;;;16.40;75.90;;;;;;4897111;28;89497;-70
2024/01/02 10:16:26;;;;;;;122.57;54.08;;;16.40;75.60;;;;;;4893703;28;90489;-70
2024/01/02 10:19:02;;;;;;;121.88;54.17;;;16.40;75.50;;;;;;4896880;28;90255;-70
2024/01/02 10:21:37;;;;;;;126.07;54.72;;;16.40;75.60;;;;;;4892324;28;91402;-71
2024/01/02 10:24:27;;;;;;;123.80;54.53;;;16.40;75.50;;;;;;4877652;28;91237;-70
2024/01/02 10:27:06;;;;;;;123.40;55.13;;;16.40;75.40;;;;;;4854473;28;90990;-73
2024/01/02 10:29:42;;;;;;;127.18;54.90;;;16.60;76.40;;;;;;4872307;28;91194;-70
2024/01/02 10:32:20;;;;;;;122.95;55.22;;;16.70;76.60;;;;;;4873354;28;91062;-72
2024/01/02 10:35:20;;;;;;;125.22;54.78;;;16.80;76.90;;;;;;4883814;28;89500;-71
2024/01/02 10:37:54;;;;;;;125.50;54.95;;;16.80;76.70;;;;;;4885897;23;89517;-78
2024/01/02 10:40:23;;;;;;;128.02;55.13;;;16.90;76.30;;;;;;4861601;28;93024;-76
2024/01/02 10:43:07;;;;;;;126.25;55.72;;;17.00;76.10;;;;;;4865718;28;90398;-72
2024/01/02 10:46:14;;;;;;;127.88;55.38;;;16.90;75.90;;;;;;4862193;28;89645;-76
2024/01/02 10:48:45;;;;;;;127.28;56.10;;;17.00;75.70;;;;;;4856471;28;88711;-76
2024/01/02 10:51:21;;;;;;;;;;;17.00;75.40;;;;;;4859858;28;89894;-78
2024/01/02 10:54:05;;;;;;;125.85;55.80;;;16.90;75.60;;;;;;4863128;28;91923;-75
2024/01/02 10:56:49;;;;;;;125.90;56.10;;;16.90;75.60;;;;;;4865127;28;90265;-79
2024/01/02 10:59:15;;;;;;;126.55;55.80;;;17.00;76.00;;;;;;4872741;28;89910;-80
2024/01/02 11:01:46;;;;;;;126.63;55.08;;;17.00;75.40;;;;;;4865215;28;90120;-78
2024/01/02 11:04:32;;;;;;;;;;;17.00;75.50;;;;;;4863412;28;90442;-76
2024/01/02 11:07:04;;;;;;;125.30;55.22;;;17.00;75.50;;;;;;4868292;28;89883;-75
2024/01/02 11:09:48;;;;;;;124.00;55.13;;;17.00;75.60;;;;;;4878835;28;89806;-80
2024/01/02 11:12:16;;;;;;;128.57;55.53;;;17.00;75.80;;;;;;4847647;28;94068;-79
2024/01/02 11:14:43;;;;;;;126.75;55.42;;;17.10;75.40;;;;;;4840489;28;93145;-79
2024/01/02 11:17:13;;;;;;;126.60;55.72;;;17.20;75.80;;;;;;4846620;28;89524;-77
2024/01/02 11:19:57;;;;;;;128.13;56.22;;;17.20;75.60;;;;;;4842762;28;89729;-76
2024/01/02 11:22:30;;;;;;;126.40;55.88;;;17.30;76.10;;;;;;4842335;28;90894;-76
2024/01/02 11:25:07;;;;;;;127.65;56.15;;;17.30;75.90;;;;;;4843767;28;92635;-76
2024/01/02 11:27:35;;;;;;;126.20;56.25;;;17.30;75.60;;;;;;4841209;28;89783;-76
2024/01/02 11:30:05;;;;;;;127.32;56.22;;;17.30;75.80;;;;;;4843809;28;92041;-78
2024/01/02 11:33:06;;;;;;;128.18;56.65;;;17.30;75.60;;;;;;4845295;28;90943;-77
2024/01/02 11:35:44;;;;;;;136.40;62.47;;;17.30;75.60;;;;;;4851682;28;91642;-74
2024/01/02 11:38:11;;;;;;;142.93;68.60;;;17.30;75.40;;;;;;4841846;28;89266;-80
2024/01/02 11:41:04;;;;;;;148.85;73.15;;;17.40;75.50;;;;;;4850492;28;88656;-79
2024/01/02 11:43:32;;;;;;;153.10;78.30;;;17.50;75.40;;;;;;4836346;28;93050;-75
2024/01/02 11:45:59;;;;;;;154.20;80.15;;;17.70;75.30;;;;;;4844817;28;91474;-74
2024/01/02 11:49:00;;;;;;;155.27;76.25;;;17.70;75.00;;;;;;4848439;28;90828;-82
2024/01/02 11:51:29;;;;;;;149.93;75.75;;;17.80;75.00;;;;;;4837677;28;90799;-84
2024/01/02 11:54:17;;;;;;;151.23;75.35;;;17.90;74.80;;;;;;4849415;28;89949;-82
2024/01/02 11:56:44;;;;;;;150.77;75.30;;;17.90;74.90;;;;;;4844560;28;89715;-81
2024/01/02 11:59:25;;;;;;;148.98;73.63;;;18.00;74.80;;;;;;4846400;28;89717;-83
2024/01/02 12:02:06;;;;;;;149.03;74.23;;;18.10;74.60;;;;;;4846456;28;89553;-82
2024/01/02 12:04:51;;;;;;;148.52;72.32;;;18.10;74.40;;;;;;4840236;28;90700;-75
2024/01/02 12:07:26;;;;;;;144.90;71.80;;;18.20;74.10;;;;;;4842424;28;90816;-77
2024/01/02 12:09:53;;;;;;;143.98;68.68;;;18.30;73.90;;;;;;4844393;28;89897;-77
2024/01/02 12:12:18;;;;;;;141.18;68.32;;;18.40;73.60;;;;;;4847692;28;90020;-79
2024/01/02 12:15:15;;;;;;;141.82;68.22;;;18.40;73.80;;;;;;4847530;28;90601;-77
2024/01/02 12:17:58;;;;;;;143.07;67.90;;;18.50;73.70;;;;;;4850565;28;94081;-77
2024/01/02 12:20:25;;;;;;;140.95;66.82;;;18.60;73.60;;;;;;4849532;28;89409;-78
2024/01/02 12:22:52;;;;;;;141.63;66.93;;;18.60;73.30;;;;;;4852948;28;90267;-79
2024/01/02 12:25:19;;;;;;;140.98;66.40;;;18.70;73.50;;;;;;4847487;28;90913;-80
2024/01/02 12:27:49;;;;;;;137.77;65.32;;;18.70;73.00;;;;;;4843484;28;89863;-80